M I D A S
Marine Information and Data Acquisition System
Tripno 640 of the Zeeleeuw from 2004-02-02 07:23:31 to 2004-02-02 13:50:01
Back to CruiseResearch ActivitiesStationsMapUnderway DataData graphs

EquipmentUnitsComment
TimeDGPSUTC
LatitudeDGPSDM.mWGS84
LongitudeDGPSDM.mWGS84
TemperatureSBE03/SBE38deg celciusITS90
ConductivitySBE21S/mITS90
SalinitySBE21 Practical Salinity Units
ChlorophylAChelsea fluorimeterg/lCalibrated in Aceton
Missing or incorrect values are displayed as -999
Sea surface data collected by the RV Zeeleeuw from 2004-02-02 07:23:31 to 2004-02-02 13:50:01
Time Latitude Longitude Temperature Conductivity Salinity ChlorophylA
2004-02-02 07:24:33 51°13.607 2°56.069 10.299554 0.079386 0.412048 -0.848668
2004-02-02 07:25:34 51°13.633 2°55.979 6.755844 2.309703 21.392144 5.084187
2004-02-02 07:26:33 51°13.661 2°55.874 6.497658 2.233511 21.108012 5.320153
2004-02-02 07:27:33 51°13.682 2°55.77 6.509493 2.312128 22.032336 4.544836
2004-02-02 07:28:33 51°13.723 2°55.778 6.498995 2.297833 21.884314 4.645965
2004-02-02 07:29:33 51°13.801 2°55.675 6.304072 1.695855 15.764498 5.893212
2004-02-02 07:30:33 51°13.907 2°55.575 6.294981 1.374541 12.593266 6.297725
2004-02-02 07:31:33 51°14.03 2°55.488 6.443456 2.183809 20.794887 5.050477
2004-02-02 07:32:33 51°14.151 2°55.399 6.363654 2.348604 22.495891 4.376289
2004-02-02 07:33:33 51°14.242 2°55.303 6.308245 2.107217 20.041044 4.34258
2004-02-02 07:34:33 51°14.317 2°55.171 6.286783 1.938013 18.308749 4.477418
2004-02-02 07:35:33 51°14.395 2°55.01 6.411676 1.88436 17.760954 4.578546
2004-02-02 07:36:33 51°14.501 2°54.93 7.087857 2.586662 24.828252 4.34258
2004-02-02 07:37:33 51°14.617 2°54.887 7.164159 3.081671 29.750342 3.702101
2004-02-02 07:38:33 51°14.719 2°54.797 7.11832 3.0962 29.924427 3.466136
2004-02-02 07:39:33 51°14.878 2°54.648 7.22632 3.294485 32.004493 2.65711
2004-02-02 07:40:33 51°15.071 2°54.459 7.188561 3.428468 33.397852 3.129042
2004-02-02 07:41:33 51°15.266 2°54.265 7.083196 3.441004 33.599831 2.454853
2004-02-02 07:42:33 51°15.463 2°54.074 7.043731 3.457018 33.862898 2.117759
2004-02-02 07:43:33 51°15.66 2°53.884 7.032388 3.458599 33.911667 2.252597
2004-02-02 07:44:33 51°15.859 2°53.698 7.053894 3.459125 33.914909 2.016631
2004-02-02 07:45:33 51°16.056 2°53.51 7.055858 3.46376 33.948754 1.881794
2004-02-02 07:46:33 51°16.253 2°53.325 7.009351 3.479563 34.15103 2.252597
2004-02-02 07:47:33 51°16.448 2°53.14 7.001343 3.482408 34.213958 2.252597
2004-02-02 07:48:33 51°16.641 2°52.957 7.0345 3.476824 34.127855 2.117759
2004-02-02 07:49:33 51°16.836 2°52.778 7.028312 3.480301 34.154883 2.08405
2004-02-02 07:50:33 51°17.036 2°52.602 7.015934 3.484726 34.214896 2.08405
2004-02-02 07:51:33 51°17.245 2°52.457 6.997412 3.484199 34.221746 2.016631
2004-02-02 07:52:33 51°17.471 2°52.37 6.987486 3.486412 34.265248 2.218888
2004-02-02 07:53:33 51°17.702 2°52.324 6.995545 3.489151 34.296012 1.848084
2004-02-02 07:54:33 51°17.934 2°52.282 7.011366 3.494419 34.344285 1.848084
2004-02-02 07:55:33 51°18.166 2°52.307 7.031946 3.497368 34.357104 1.746956
2004-02-02 07:56:33 51°18.358 2°52.533 7.043878 3.500002 34.368151 1.645828
2004-02-02 07:57:33 51°18.516 2°52.832 7.057723 3.496736 34.323242 2.185178
2004-02-02 07:58:33 51°18.673 2°53.137 7.070534 3.503057 34.376202 1.780665
2004-02-02 07:59:33 51°18.825 2°53.445 7.069798 3.506534 34.40907 2.117759
2004-02-02 08:00:33 51°18.976 2°53.759 7.058067 3.508325 34.43114 2.320016
2004-02-02 08:01:33 51°19.129 2°54.071 7.051047 3.503057 34.383788 2.454853
2004-02-02 08:02:33 51°19.273 2°54.389 7.043682 3.5098 34.464975 2.387435
2004-02-02 08:03:34 51°19.419 2°54.715 7.04108 3.506639 34.43723 2.555982
2004-02-02 08:04:33 51°19.56 2°55.032 7.037495 3.508009 34.453028 2.791947
2004-02-02 08:05:33 51°19.705 2°55.352 7.028557 3.501898 34.388007 2.893076
2004-02-02 08:06:33 51°19.844 2°55.677 7.015541 3.498 34.360633 2.960494
2004-02-02 08:07:33 51°19.987 2°55.999 7.006011 3.501899 34.415871 2.893076
2004-02-02 08:08:33 51°20.128 2°56.325 6.993531 3.50074 34.40997 2.859366
2004-02-02 08:09:33 51°20.271 2°56.655 6.975641 3.49642 34.377975 3.061623
2004-02-02 08:10:33 51°20.407 2°56.989 6.934143 3.493155 34.370153 2.724529
2004-02-02 08:11:33 51°20.526 2°57.339 6.92706 3.490521 34.369244 2.926785
2004-02-02 08:12:33 51°20.638 2°57.692 6.905806 3.486729 34.333655 3.19646
2004-02-02 08:13:33 51°20.752 2°58.046 6.885529 3.495263 34.45591 3.499845
2004-02-02 08:14:34 51°20.931 2°58.311 6.886661 3.486834 34.377127 3.668392
2004-02-02 08:15:33 51°21.143 2°58.484 6.895619 3.482831 34.323954 3.668392
2004-02-02 08:16:33 51°21.353 2°58.68 6.910628 3.498845 34.495164 3.297589
2004-02-02 08:17:33 51°21.515 2°58.978 6.936208 3.501057 34.495612 3.263879
2004-02-02 08:18:33 51°21.621 2°59.335 6.945602 3.499687 34.461942 2.555982
2004-02-02 08:19:33 51°21.716 2°59.701 6.954895 3.499792 34.45716 2.724529
2004-02-02 08:20:33 51°21.803 3°0.074 6.960746 3.501689 34.47113 2.488563
2004-02-02 08:21:33 51°21.859 3°0.469 6.974658 3.507799 34.524421 2.555982
2004-02-02 08:22:33 51°21.914 3°0.867 6.975494 3.508537 34.527396 2.522272
2004-02-02 08:23:33 51°21.979 3°1.26 6.972594 3.510117 34.537894 2.690819
2004-02-02 08:24:33 51°22.116 3°1.593 6.982916 3.510538 34.547599 3.162751
2004-02-02 08:25:33 51°22.291 3°1.871 7.000066 3.506851 34.494537 3.061623
2004-02-02 08:26:33 51°22.476 3°2.135 7.020011 3.508852 34.496083 3.398717
2004-02-02 08:27:33 51°22.656 3°2.408 7.032633 3.505164 34.437179 3.567264
2004-02-02 08:28:33 51°22.835 3°2.677 7.020551 3.514225 34.53531 3.297589
2004-02-02 08:29:33 51°23.017 3°2.948 7.015148 3.515173 34.555848 3.567264
2004-02-02 08:30:33 51°23.199 3°3.222 6.988666 3.501266 34.40812 3.331298
2004-02-02 08:31:33 51°23.376 3°3.496 6.920123 3.50959 34.540622 3.129042
2004-02-02 08:32:33 51°23.554 3°3.779 6.841361 3.499582 34.508349 3.19646
2004-02-02 08:33:33 51°23.734 3°4.054 6.829145 3.477353 34.323173 3.904358
2004-02-02 08:34:33 51°23.928 3°4.299 6.801155 3.473666 34.29035 4.005486
2004-02-02 08:35:33 51°24.137 3°4.514 6.74139 3.489891 34.514429 3.466136
2004-02-02 08:36:33 51°24.345 3°4.729 6.696382 3.475564 34.416565 3.499845
2004-02-02 08:37:33 51°24.545 3°4.951 6.625448 3.469664 34.389144 3.331298
2004-02-02 08:38:33 51°24.751 3°5.168 6.614525 3.461448 34.35747 3.634683
2004-02-02 08:39:33 51°24.955 3°5.391 6.636815 3.464608 34.388056 3.870648
2004-02-02 08:40:33 51°25.163 3°5.606 6.660678 3.469665 34.423305 3.76952
2004-02-02 08:41:33 51°25.376 3°5.811 6.724861 3.467768 34.3657 2.994204
2004-02-02 08:42:33 51°25.576 3°6.052 6.751306 3.470506 34.339648 2.893076
2004-02-02 08:43:33 51°25.731 3°6.375 6.749283 3.480936 34.444975 2.893076
2004-02-02 08:44:33 51°25.883 3°6.692 6.745337 3.479356 34.426743 2.960494
2004-02-02 08:45:33 51°26.026 3°7.017 6.740946 3.484413 34.490898 3.129042
2004-02-02 08:46:33 51°26.16 3°7.355 6.73473 3.481674 34.464177 3.668392
2004-02-02 08:47:33 51°26.298 3°7.693 6.732411 3.477249 34.416354 3.80323
2004-02-02 08:48:33 51°26.418 3°8.007 6.725552 3.479251 34.440932 3.836939
2004-02-02 08:49:33 51°26.513 3°8.182 6.718742 3.481147 34.473749 3.76952
2004-02-02 08:50:33 51°26.569 3°8.251 6.734631 3.478935 34.448546 3.735811
2004-02-02 08:51:33 51°26.588 3°8.303 6.736013 3.482622 34.476316 3.76952
2004-02-02 08:52:33 51°26.6 3°8.353 6.72945 3.481463 34.471249 4.511127
2004-02-02 08:53:33 51°26.634 3°8.388 6.729056 3.481252 34.469785 3.971777
2004-02-02 08:54:34 51°26.685 3°8.423 6.731227 3.47609 34.424068 3.702101
2004-02-02 08:55:33 51°26.73 3°8.469 6.741686 3.481674 34.475276 3.80323
2004-02-02 08:56:33 51°26.772 3°8.516 6.739072 3.48199 34.471923 4.039195
2004-02-02 08:57:33 51°26.816 3°8.563 6.74287 3.483149 34.484675 3.836939
2004-02-02 08:58:33 51°26.855 3°8.614 6.741489 3.476933 34.412025 3.80323
2004-02-02 08:59:33 51°26.894 3°8.674 6.743364 3.473878 34.381828 3.971777
2004-02-02 09:00:33 51°26.933 3°8.742 6.745288 3.475985 34.398189 3.80323
2004-02-02 09:01:33 51°26.972 3°8.811 6.738184 3.479883 34.443621 3.600973
2004-02-02 09:02:33 51°27.006 3°8.885 6.733743 3.480831 34.462586 3.836939
2004-02-02 09:03:33 51°27.035 3°8.97 6.729105 3.474299 34.392426 3.634683
2004-02-02 09:04:34 51°27.054 3°9.072 6.719828 3.464923 34.296096 3.533554
2004-02-02 09:05:33 51°27.066 3°9.168 6.715929 3.477776 34.439206 3.702101
2004-02-02 09:06:33 51°27.078 3°9.26 6.711388 3.478935 34.462208 3.567264
2004-02-02 09:07:33 51°27.085 3°9.351 6.705613 3.476933 34.441879 3.331298
2004-02-02 09:08:33 51°27.092 3°9.436 6.705465 3.477249 34.449628 3.499845
2004-02-02 09:09:33 51°27.097 3°9.529 6.703885 3.473562 34.408179 3.634683
2004-02-02 09:10:33 51°27.101 3°9.62 6.697715 3.471982 34.391636 3.331298
2004-02-02 09:11:33 51°27.105 3°9.712 6.695592 3.471666 34.395832 3.499845
2004-02-02 09:12:33 51°27.111 3°9.804 6.688038 3.473562 34.421833 3.600973
2004-02-02 09:13:33 51°27.12 3°9.896 6.677569 3.468084 34.371739 3.499845
2004-02-02 09:14:33 51°27.129 3°9.989 6.668532 3.469875 34.397438 3.466136
2004-02-02 09:15:33 51°27.133 3°10.083 6.656874 3.467242 34.381222 3.80323
2004-02-02 09:16:33 51°27.133 3°10.174 6.654849 3.469349 34.41042 4.039195
2004-02-02 09:17:33 51°27.125 3°10.26 6.647883 3.464292 34.359809 4.005486
2004-02-02 09:18:33 51°27.112 3°10.345 6.638001 3.467347 34.398608 4.443708
2004-02-02 09:19:33 51°27.093 3°10.427 6.631923 3.466083 34.394067 4.612255
2004-02-02 09:20:33 51°27.071 3°10.507 6.628117 3.467031 34.411362 4.477418
2004-02-02 09:21:33 51°27.048 3°10.586 6.625102 3.453757 34.266704 4.376289
2004-02-02 09:22:33 51°27.025 3°10.664 6.62446 3.462501 34.363111 4.072905
2004-02-02 09:23:33 51°27.001 3°10.74 6.613635 3.464819 34.393799 4.443708
2004-02-02 09:24:33 51°26.974 3°10.821 6.608988 3.461553 34.366319 4.308871
2004-02-02 09:25:33 51°26.953 3°10.896 6.603105 3.461237 34.365396 4.207742
2004-02-02 09:26:33 51°26.926 3°10.972 6.599693 3.459973 34.357429 4.409999
2004-02-02 09:27:33 51°26.903 3°11.046 6.598754 3.456181 34.320707 4.275161
2004-02-02 09:28:33 51°26.89 3°11.108 6.597369 3.455865 34.321488 4.207742
2004-02-02 09:29:33 51°26.885 3°11.165 6.597666 3.463344 34.405751 4.106614
2004-02-02 09:30:33 51°26.884 3°11.222 6.592721 3.461975 34.387212 4.072905
2004-02-02 09:31:33 51°26.859 3°11.277 6.596578 3.461237 34.385059 4.140324
2004-02-02 09:32:33 51°26.828 3°11.311 6.594699 3.461553 34.385126 3.971777
2004-02-02 09:33:33 51°26.807 3°11.325 6.593858 3.46208 34.393507 4.241452
2004-02-02 09:34:33 51°26.8 3°11.3 6.597666 3.462396 34.394429 4.174033
2004-02-02 09:35:33 51°26.821 3°11.261 6.602907 3.464292 34.411082 4.376289
2004-02-02 09:36:33 51°26.852 3°11.224 6.603995 3.460395 34.368916 4.376289
2004-02-02 09:37:33 51°26.888 3°11.207 6.603055 3.464398 34.410533 4.578546
2004-02-02 09:38:33 51°26.928 3°11.202 6.599891 3.461975 34.388067 4.511127
2004-02-02 09:39:33 51°26.969 3°11.208 6.60528 3.464292 34.412794 4.308871
2004-02-02 09:40:33 51°27.013 3°11.22 6.599841 3.46208 34.384098 4.376289
2004-02-02 09:41:33 51°27.061 3°11.221 6.603747 3.464398 34.417381 4.409999
2004-02-02 09:42:33 51°27.111 3°11.225 6.605379 3.465241 34.42326 4.174033
2004-02-02 09:43:33 51°27.161 3°11.234 6.60533 3.462185 34.388682 4.174033
2004-02-02 09:44:34 51°27.209 3°11.255 6.60879 3.46366 34.399827 4.443708
2004-02-02 09:45:33 51°27.252 3°11.276 6.610965 3.457761 34.33302 4.241452
2004-02-02 09:46:33 51°27.295 3°11.296 6.607258 3.461448 34.379688 4.477418
2004-02-02 09:47:33 51°27.337 3°11.313 6.604934 3.464398 34.412245 4.376289
2004-02-02 09:48:35 51°27.383 3°11.336 6.600237 3.46503 34.416654 4.578546
2004-02-02 09:49:33 51°27.424 3°11.353 6.600237 3.458182 34.347919 4.645965
2004-02-02 09:50:33 51°27.465 3°11.373 6.604489 3.457761 34.339851 4.477418
2004-02-02 09:51:33 51°27.502 3°11.393 6.604637 3.461659 34.379448 4.645965
2004-02-02 09:52:33 51°27.544 3°11.412 6.601918 3.463555 34.403798 4.511127
2004-02-02 09:53:33 51°27.586 3°11.437 6.605379 3.4546 34.306686 4.443708
2004-02-02 09:54:33 51°27.629 3°11.46 6.602857 3.458814 34.351477 4.477418
2004-02-02 09:55:33 51°27.672 3°11.479 6.602066 3.453231 34.294987 4.207742
2004-02-02 09:56:33 51°27.716 3°11.498 6.602264 3.455338 34.318237 4.376289
2004-02-02 09:57:33 51°27.757 3°11.521 6.602017 3.460605 34.376371 3.971777
2004-02-02 09:58:34 51°27.798 3°11.537 6.600435 3.45755 34.341797 4.34258
2004-02-02 09:59:33 51°27.838 3°11.558 6.602215 3.45755 34.341797 4.409999
2004-02-02 10:00:33 51°27.877 3°11.582 6.605577 3.461975 34.392344 4.544836
2004-02-02 10:01:33 51°27.923 3°11.615 6.618084 3.460289 34.36348 4.477418
2004-02-02 10:02:33 51°27.96 3°11.652 6.621346 3.458393 34.33231 4.005486
2004-02-02 10:03:33 51°27.988 3°11.694 6.627376 3.462501 34.37507 3.836939
2004-02-02 10:04:33 51°28.022 3°11.732 6.618183 3.462817 34.371721 3.904358
2004-02-02 10:05:33 51°28.068 3°11.691 6.592721 3.46071 34.36642 3.870648
2004-02-02 10:06:33 51°28.028 3°11.646 6.579022 3.457866 34.356396 3.904358
2004-02-02 10:07:33 51°27.93 3°11.491 6.610619 3.458814 34.347205 4.005486
2004-02-02 10:08:33 51°27.831 3°11.271 6.649167 3.463133 34.370936 3.836939
2004-02-02 10:09:34 51°27.728 3°11.043 6.669322 3.468822 34.408031 4.34258
2004-02-02 10:10:33 51°27.629 3°10.819 6.703639 3.473246 34.428599 4.34258
2004-02-02 10:11:33 51°27.528 3°10.593 6.727575 3.476828 34.437305 3.668392
2004-02-02 10:12:33 51°27.46 3°10.329 6.73848 3.478619 34.439095 3.634683
2004-02-02 10:13:33 51°27.395 3°10.042 6.763439 3.480726 34.451186 3.634683
2004-02-02 10:14:33 51°27.328 3°9.76 6.814659 3.484939 34.45915 3.836939
2004-02-02 10:15:33 51°27.258 3°9.48 6.83811 3.48989 34.472651 3.432426
2004-02-02 10:16:33 51°27.102 3°9.359 6.866034 3.492313 34.483925 3.466136
2004-02-02 10:17:33 51°26.923 3°9.256 6.868939 3.493156 34.465097 3.634683
2004-02-02 10:18:35 51°26.758 3°9.108 6.825597 3.491049 34.452188 3.702101
2004-02-02 10:19:33 51°26.614 3°8.94 6.778725 3.487889 34.465999 3.668392
2004-02-02 10:20:33 51°26.489 3°8.726 6.770688 3.485571 34.467802 3.533554
2004-02-02 10:21:33 51°26.389 3°8.504 6.774386 3.484939 34.460855 3.432426
2004-02-02 10:22:33 51°26.285 3°8.271 6.787353 3.486625 34.478529 3.027913
2004-02-02 10:23:33 51°26.172 3°8.036 6.796128 3.487573 34.47616 2.960494
2004-02-02 10:24:33 51°26.035 3°7.825 6.790508 3.488626 34.488589 2.6234
2004-02-02 10:25:33 51°25.904 3°7.627 6.776013 3.4881 34.486212 2.690819
2004-02-02 10:26:33 51°25.774 3°7.432 6.758014 3.487257 34.494009 2.724529
2004-02-02 10:27:33 51°25.641 3°7.226 6.752786 3.486098 34.494923 2.690819
2004-02-02 10:28:33 51°25.509 3°7.006 6.74953 3.486309 34.504073 2.893076
2004-02-02 10:29:33 51°25.378 3°6.786 6.744153 3.486204 34.504622 2.65711
2004-02-02 10:30:33 51°25.246 3°6.571 6.774534 3.487468 34.512549 2.825657
2004-02-02 10:31:33 51°25.109 3°6.365 6.795043 3.491576 34.524421 3.331298
2004-02-02 10:32:33 51°24.969 3°6.16 6.842593 3.496317 34.546636 3.499845
2004-02-02 10:33:33 51°24.828 3°5.953 6.909742 3.501795 34.562419 3.702101
2004-02-02 10:34:33 51°24.687 3°5.747 6.971709 3.510328 34.584407 3.365007
2004-02-02 10:35:33 51°24.549 3°5.549 7.010137 3.515806 34.587385 3.23017
2004-02-02 10:36:33 51°24.409 3°5.345 7.030571 3.519493 34.602216 3.129042
2004-02-02 10:37:33 51°24.267 3°5.137 7.035678 3.521389 34.610203 3.365007
2004-02-02 10:38:35 51°24.118 3°4.919 7.036366 3.522232 34.614317 3.19646
2004-02-02 10:39:33 51°23.982 3°4.716 7.039312 3.522022 34.610316 2.960494
2004-02-02 10:40:33 51°23.846 3°4.517 7.04707 3.522443 34.610675 3.19646
2004-02-02 10:41:33 51°23.71 3°4.316 7.057085 3.523391 34.609148 3.061623
2004-02-02 10:42:33 51°23.57 3°4.106 7.071271 3.524971 34.61792 2.791947
2004-02-02 10:43:34 51°23.431 3°3.894 7.077013 3.526236 34.623238 2.825657
2004-02-02 10:44:33 51°23.301 3°3.703 7.064006 3.526446 34.619598 2.724529
2004-02-02 10:45:34 51°23.163 3°3.498 7.044664 3.523391 34.604904 2.791947
2004-02-02 10:46:33 51°23.035 3°3.313 7.020208 3.52002 34.591839 3.027913
2004-02-02 10:47:34 51°22.901 3°3.12 7.005962 3.516543 34.56997 2.6234
2004-02-02 10:48:33 51°22.769 3°2.919 6.986847 3.513593 34.55894 2.522272
2004-02-02 10:49:33 51°22.632 3°2.718 6.975199 3.511381 34.547478 2.791947
2004-02-02 10:50:33 51°22.493 3°2.525 6.962369 3.510538 34.547599 2.522272
2004-02-02 10:51:33 51°22.357 3°2.335 6.937684 3.508642 34.547236 2.859366
2004-02-02 10:52:33 51°22.24 3°2.164 6.933552 3.50664 34.538069 2.724529
2004-02-02 10:53:33 51°22.117 3°1.945 6.938372 3.504428 34.518091 3.129042
2004-02-02 10:54:33 51°21.996 3°1.741 6.94629 3.503901 34.507227 2.893076
2004-02-02 10:55:33 51°21.873 3°1.535 6.947028 3.503901 34.498737 3.095332
2004-02-02 10:56:33 51°21.747 3°1.32 6.947274 3.50348 34.490731 2.926785
2004-02-02 10:57:34 51°21.618 3°1.097 6.971512 3.503374 34.487033 3.027913
2004-02-02 10:58:33 51°21.498 3°0.892 6.99923 3.50506 34.476647 2.893076
2004-02-02 10:59:33 51°21.377 3°0.691 7.016917 3.505902 34.462997 2.825657
2004-02-02 11:00:33 51°21.253 3°0.493 7.023793 3.505902 34.446079 2.926785
2004-02-02 11:01:33 51°21.134 3°0.339 7.02561 3.506007 34.442158 3.095332
2004-02-02 11:02:33 51°21.073 3°0.198 7.013429 3.505691 34.443778 2.589691
2004-02-02 11:03:33 51°21.015 3°0.064 7.012545 3.504743 34.443566 2.555982
2004-02-02 11:04:33 51°21.003 3°0.053 7.011218 3.504111 34.440042 2.488563
2004-02-02 11:05:33 51°21.015 3°0.099 7.011857 3.504216 34.444577 2.421144
2004-02-02 11:06:33 51°21.02 3°0.151 7.007239 3.5039 34.440277 2.690819
2004-02-02 11:07:33 51°21.001 3°0.179 7.013331 3.504111 34.438351 2.758238
2004-02-02 11:08:33 51°20.985 3°0.168 7.009843 3.5039 34.436895 2.454853
2004-02-02 11:09:33 51°21.017 3°0.135 7.002228 3.503163 34.434756 2.522272
2004-02-02 11:10:33 51°21.076 3°0.128 7.016524 3.503163 34.439831 2.522272
2004-02-02 11:11:33 51°21.13 3°0.145 7.010383 3.504216 34.442039 2.960494
2004-02-02 11:12:33 51°21.187 3°0.181 7.023744 3.50527 34.450167 2.65711
2004-02-02 11:13:33 51°21.237 3°0.224 7.032241 3.505481 34.444858 2.893076
2004-02-02 11:14:33 51°21.285 3°0.273 7.04324 3.506218 34.442768 2.589691
2004-02-02 11:15:33 51°21.328 3°0.326 7.043486 3.506955 34.444906 2.65711
2004-02-02 11:16:33 51°21.373 3°0.384 7.051734 3.507588 34.449272 2.926785
2004-02-02 11:17:33 51°21.42 3°0.444 7.049918 3.508009 34.448803 2.690819
2004-02-02 11:18:33 51°21.46 3°0.515 7.056251 3.508114 34.448263 2.589691
2004-02-02 11:19:33 51°21.498 3°0.595 7.054287 3.508746 34.450094 2.555982
2004-02-02 11:20:33 51°21.521 3°0.686 7.050408 3.508852 34.449555 2.690819
2004-02-02 11:21:33 51°21.535 3°0.773 7.047659 3.508536 34.449484 2.758238
2004-02-02 11:22:33 51°21.546 3°0.864 7.048445 3.508536 34.452864 2.724529
2004-02-02 11:23:33 51°21.56 3°0.958 7.050801 3.508536 34.452864 2.690819
2004-02-02 11:24:33 51°21.573 3°1.047 7.048788 3.508325 34.450563 2.6234
2004-02-02 11:25:33 51°21.584 3°1.132 7.043682 3.50843 34.451714 2.65711
2004-02-02 11:26:33 51°21.599 3°1.221 7.041522 3.508114 34.451643 2.589691
2004-02-02 11:27:33 51°21.61 3°1.314 7.038133 3.507693 34.449578 2.791947
2004-02-02 11:28:33 51°21.621 3°1.402 7.0372 3.507482 34.452348 2.758238
2004-02-02 11:29:33 51°21.631 3°1.491 7.033075 3.507166 34.450587 2.859366
2004-02-02 11:30:33 51°21.64 3°1.583 7.033272 3.507061 34.451973 2.893076
2004-02-02 11:31:33 51°21.648 3°1.673 7.025709 3.506745 34.448521 2.926785
2004-02-02 11:32:33 51°21.654 3°1.758 7.022909 3.506534 34.450447 2.791947
2004-02-02 11:33:33 51°21.66 3°1.845 7.024284 3.506429 34.450987 3.095332
2004-02-02 11:34:34 51°21.665 3°1.933 7.02232 3.506323 34.451528 2.758238
2004-02-02 11:35:33 51°21.671 3°2.02 7.024432 3.506007 34.448921 2.791947
2004-02-02 11:36:33 51°21.674 3°2.107 7.023597 3.505586 34.446009 2.859366
2004-02-02 11:37:33 51°21.67 3°2.189 7.013036 3.50527 34.446784 2.825657
2004-02-02 11:38:33 51°21.667 3°2.257 7.015148 3.504638 34.436497 3.129042
2004-02-02 11:39:33 51°21.675 3°2.316 7.018587 3.504532 34.440419 2.859366
2004-02-02 11:40:33 51°21.687 3°2.376 7.015246 3.504954 34.44164 3.23017
2004-02-02 11:41:33 51°21.702 3°2.434 7.014166 3.505059 34.446174 2.791947
2004-02-02 11:42:33 51°21.716 3°2.498 7.017015 3.505375 34.445398 2.926785
2004-02-02 11:43:33 51°21.726 3°2.555 7.014952 3.504954 34.443331 2.994204
2004-02-02 11:44:33 51°21.734 3°2.618 7.013281 3.504954 34.442486 3.027913
2004-02-02 11:45:33 51°21.714 3°2.666 7.013183 3.504849 34.44218 2.926785
2004-02-02 11:46:33 51°21.696 3°2.679 7.010678 3.504849 34.443026 2.926785
2004-02-02 11:47:33 51°21.712 3°2.697 7.009155 3.5039 34.438586 3.331298
2004-02-02 11:48:33 51°21.736 3°2.749 7.007878 3.503268 34.437599 3.061623
2004-02-02 11:49:33 51°21.757 3°2.803 7.008074 3.503163 34.436447 3.263879
2004-02-02 11:50:33 51°21.779 3°2.856 7.017899 3.503268 34.434216 3.095332
2004-02-02 11:51:34 51°21.804 3°2.904 7.018881 3.503584 34.435978 2.65711
2004-02-02 11:52:33 51°21.828 3°2.951 7.022565 3.504216 34.438657 2.454853
2004-02-02 11:53:33 51°21.85 3°3.002 7.02787 3.504954 34.444177 2.286306
2004-02-02 11:54:33 51°21.872 3°3.056 7.035187 3.504954 34.435723 2.454853
2004-02-02 11:55:33 51°21.893 3°3.11 7.037004 3.505059 34.436873 2.421144
2004-02-02 11:56:33 51°21.915 3°3.163 7.03116 3.505059 34.436873 2.353725
2004-02-02 11:57:33 51°21.937 3°3.213 7.03116 3.504954 34.439104 2.421144
2004-02-02 11:58:33 51°21.961 3°3.26 7.030473 3.506113 34.450072 2.522272
2004-02-02 11:59:34 51°21.991 3°3.307 7.034549 3.504743 34.440184 2.522272
2004-02-02 12:00:33 51°22.03 3°3.311 7.033714 3.504743 34.432576 2.488563
2004-02-02 12:01:33 51°22.057 3°3.301 7.026838 3.505481 34.440631 2.6234
2004-02-02 12:02:33 51°22.057 3°3.303 7.0372 3.505481 34.446549 3.061623
2004-02-02 12:03:33 51°22.039 3°3.284 7.025365 3.506323 34.443919 2.926785
2004-02-02 12:04:33 51°22.02 3°3.23 7.031307 3.504954 34.444177 3.129042
2004-02-02 12:05:33 51°22.001 3°3.189 7.025267 3.506113 34.444154 3.095332
2004-02-02 12:06:33 51°21.984 3°3.136 7.020355 3.505481 34.444858 3.061623
2004-02-02 12:07:33 51°21.956 3°2.952 7.025021 3.504954 34.442486 3.129042
2004-02-02 12:08:33 51°21.929 3°2.758 7.022762 3.504954 34.434878 3.23017
2004-02-02 12:09:33 51°21.907 3°2.56 7.024284 3.505375 34.442016 3.19646
2004-02-02 12:10:33 51°21.895 3°2.352 7.032093 3.505375 34.441171 3.297589
2004-02-02 12:11:34 51°21.882 3°2.119 7.035924 3.505059 34.437719 3.297589
2004-02-02 12:12:33 51°21.851 3°1.886 7.040834 3.505902 34.442698 3.129042
2004-02-02 12:13:35 51°21.768 3°1.65 7.054385 3.506534 34.441994 2.960494
2004-02-02 12:14:33 51°21.686 3°1.445 7.044615 3.506429 34.427329 3.162751
2004-02-02 12:15:34 51°21.589 3°1.226 7.031897 3.505902 34.435092 2.791947
2004-02-02 12:16:33 51°21.494 3°1.012 7.033517 3.505164 34.427039 2.859366
2004-02-02 12:17:33 51°21.397 3°0.78 7.032781 3.504743 34.425817 2.724529
2004-02-02 12:18:35 51°21.299 3°0.575 7.02895 3.504532 34.422671 2.488563
2004-02-02 12:19:33 51°21.216 3°0.382 7.031258 3.5039 34.418303 2.353725
2004-02-02 12:20:35 51°21.116 3°0.152 7.035973 3.503373 34.410862 2.454853
2004-02-02 12:21:33 51°21.079 3°0.09 7.031307 3.502952 34.401196 2.252597
2004-02-02 12:22:33 51°21.079 3°0.112 7.040294 3.502952 34.404572 2.050341
2004-02-02 12:23:33 51°21.095 3°0.16 7.045646 3.50253 34.395751 2.151469
2004-02-02 12:24:33 51°21.094 3°0.213 7.041129 3.502741 34.39552 2.252597
2004-02-02 12:25:33 51°21.068 3°0.248 7.045253 3.503163 34.398432 2.08405
2004-02-02 12:26:34 51°21.029 3°0.254 7.047463 3.50253 34.39322 2.151469
2004-02-02 12:27:33 51°20.997 3°0.255 7.053747 3.503268 34.395364 2.050341
2004-02-02 12:28:33 51°20.968 3°0.251 7.061061 3.503057 34.38716 1.982922
2004-02-02 12:29:33 51°20.942 3°0.23 7.058951 3.503162 34.387467 1.982922
2004-02-02 12:30:33 51°20.908 3°0.205 7.06008 3.503057 34.382102 2.151469
2004-02-02 12:31:33 51°20.877 3°0.187 7.064006 3.503162 34.379037 2.387435
2004-02-02 12:32:34 51°20.841 3°0.165 7.062632 3.502741 34.374439 2.320016
2004-02-02 12:33:33 51°20.815 3°0.125 7.06808 3.502846 34.373903 2.353725
2004-02-02 12:34:33 51°20.789 3°0.111 7.070191 3.502741 34.366857 2.454853
2004-02-02 12:35:33 51°20.761 3°0.098 7.072743 3.502741 34.362646 2.488563
2004-02-02 12:36:33 51°20.727 3°0.09 7.078779 3.502425 34.356674 2.421144
2004-02-02 12:37:33 51°20.695 3°0.073 7.084668 3.502319 34.349633 2.488563
2004-02-02 12:38:35 51°20.662 3°0.062 7.087906 3.502109 34.347336 2.522272
2004-02-02 12:39:33 51°20.636 3°0.043 7.09036 3.501792 34.341366 2.65711
2004-02-02 12:40:33 51°20.607 3°0.012 7.092469 3.501582 34.335705 2.522272
2004-02-02 12:41:33 51°20.573 2°59.994 7.090458 3.501371 34.330044 2.522272
2004-02-02 12:42:33 51°20.534 2°59.977 7.09816 3.500844 34.320101 2.589691
2004-02-02 12:43:33 51°20.503 2°59.939 7.099878 3.500001 34.310916 2.690819
2004-02-02 12:44:33 51°20.473 2°59.906 7.096787 3.499053 34.297225 2.454853
2004-02-02 12:45:35 51°20.442 2°59.864 7.098749 3.498737 34.295461 2.555982
2004-02-02 12:46:33 51°20.418 2°59.831 7.105077 3.498632 34.289275 2.454853
2004-02-02 12:47:35 51°20.403 2°59.776 7.107579 3.49821 34.283845 2.454853
2004-02-02 12:48:33 51°20.385 2°59.723 7.111454 3.497999 34.282389 2.454853
2004-02-02 12:49:35 51°20.36 2°59.663 7.112582 3.49821 34.280488 2.387435
2004-02-02 12:50:33 51°20.333 2°59.622 7.107922 3.497894 34.276206 2.6234
2004-02-02 12:51:33 51°20.319 2°59.576 7.110669 3.498421 34.281105 2.65711
2004-02-02 12:52:35 51°20.303 2°59.519 7.11013 3.497789 34.273381 2.488563
2004-02-02 12:53:33 51°20.283 2°59.463 7.109639 3.497894 34.274528 2.387435
2004-02-02 12:54:33 51°20.268 2°59.402 7.114397 3.497683 34.275589 2.589691
2004-02-02 12:55:33 51°20.284 2°59.39 7.111748 3.497683 34.27475 2.522272
2004-02-02 12:56:33 51°20.307 2°59.422 7.116555 3.497683 34.273911 2.488563
2004-02-02 12:57:33 51°20.329 2°59.458 7.125775 3.498421 34.275232 2.454853
2004-02-02 12:58:34 51°20.35 2°59.496 7.155435 3.500844 34.273942 2.353725
2004-02-02 12:59:33 51°20.367 2°59.529 7.149651 3.501897 34.282054 2.286306
2004-02-02 13:00:33 51°20.388 2°59.564 7.139945 3.50116 34.282411 2.353725
2004-02-02 13:01:33 51°20.41 2°59.598 7.137444 3.500422 34.281091 2.117759
2004-02-02 13:02:33 51°20.46 2°59.57 7.134257 3.49979 34.278403 1.949212
2004-02-02 13:03:33 51°20.452 2°59.463 7.121557 3.499685 34.283966 2.218888
2004-02-02 13:04:33 51°20.376 2°59.225 7.125922 3.501687 34.304924 2.286306
2004-02-02 13:05:35 51°20.287 2°58.945 7.13058 3.501687 34.303245 2.488563
2004-02-02 13:06:33 51°20.205 2°58.676 7.12803 3.500422 34.289479 2.421144
2004-02-02 13:07:33 51°20.119 2°58.391 7.119841 3.499264 34.279377 2.353725
2004-02-02 13:08:35 51°20.031 2°58.108 7.124696 3.497789 34.262479 2.320016
2004-02-02 13:09:33 51°19.953 2°57.846 7.125039 3.495997 34.23879 2.218888
2004-02-02 13:10:33 51°19.867 2°57.568 7.124303 3.496314 34.243906 2.218888
2004-02-02 13:11:35 51°19.78 2°57.284 7.115378 3.496524 34.247038 2.320016
2004-02-02 13:12:33 51°19.697 2°57.016 7.113416 3.497051 34.261994 2.387435
2004-02-02 13:13:34 51°19.611 2°56.725 7.109541 3.497578 34.273603 1.982922
2004-02-02 13:14:35 51°19.532 2°56.473 7.096689 3.498316 34.284153 2.016631
2004-02-02 13:15:35 51°19.45 2°56.196 7.102232 3.497578 34.280316 1.746956
2004-02-02 13:16:33 51°19.368 2°55.916 7.106058 3.496946 34.275108 1.814375
2004-02-02 13:17:33 51°19.283 2°55.625 7.103311 3.496103 34.259215 1.713247
2004-02-02 13:18:34 51°19.197 2°55.343 7.11322 3.495366 34.252022 1.713247
2004-02-02 13:19:33 51°19.116 2°55.062 7.121459 3.495576 34.245933 1.848084
2004-02-02 13:20:34 51°19.029 2°54.772 7.113759 3.495471 34.23892 1.814375
2004-02-02 13:21:34 51°18.94 2°54.482 7.121214 3.494628 34.228906 2.08405
2004-02-02 13:22:36 51°18.846 2°54.192 7.118075 3.494839 34.233713 2.286306
2004-02-02 13:23:35 51°18.758 2°53.926 7.105077 3.494944 34.241564 2.117759
2004-02-02 13:24:35 51°18.671 2°53.662 7.095658 3.494944 34.251624 2.151469
2004-02-02 13:25:35 51°18.567 2°53.396 7.081037 3.494523 34.257099 2.08405
2004-02-02 13:26:34 51°18.444 2°53.153 7.071172 3.494523 34.273048 1.949212
2004-02-02 13:27:34 51°18.301 2°52.919 7.068866 3.49368 34.269739 2.08405
2004-02-02 13:28:34 51°18.147 2°52.717 7.070044 3.494312 34.274111 1.848084
2004-02-02 13:29:34 51°17.985 2°52.537 7.074264 3.494102 34.270134 1.746956
2004-02-02 13:30:34 51°17.806 2°52.383 7.07397 3.493786 34.267528 1.780665
2004-02-02 13:31:35 51°17.606 2°52.303 7.089967 3.494312 34.264874 1.780665
2004-02-02 13:32:34 51°17.399 2°52.303 7.119203 3.494734 34.250168 1.949212
2004-02-02 13:33:34 51°17.189 2°52.35 7.147494 3.494522 34.209345 2.08405
2004-02-02 13:34:35 51°16.976 2°52.418 7.162787 3.492626 34.178682 2.252597
2004-02-02 13:35:35 51°16.769 2°52.512 7.165287 3.487779 34.100138 2.016631
2004-02-02 13:36:35 51°16.562 2°52.618 7.176802 3.482512 34.059548 1.780665
2004-02-02 13:37:34 51°16.358 2°52.728 7.133228 3.483249 34.075058 1.578409
2004-02-02 13:38:34 51°16.153 2°52.852 7.10027 3.480932 34.07902 1.443571
2004-02-02 13:39:34 51°15.952 2°52.989 7.071418 3.479036 34.077567 1.376153
2004-02-02 13:40:35 51°15.75 2°53.15 7.059294 3.48009 34.117434 1.477281
2004-02-02 13:41:34 51°15.594 2°53.279 7.064252 3.480722 34.122649 1.5447
2004-02-02 13:42:35 51°15.472 2°53.388 7.070633 3.479458 34.113892 1.645828
2004-02-02 13:43:35 51°15.289 2°53.546 7.10493 3.478509 34.08602 1.713247
2004-02-02 13:44:35 51°15.112 2°53.76 7.124254 3.481986 34.100494 1.713247
2004-02-02 13:45:35 51°14.938 2°53.99 7.133718 3.482091 34.090794 2.08405
2004-02-02 13:46:35 51°14.769 2°54.227 7.169011 3.484303 34.088178 2.185178
2004-02-02 13:47:35 51°14.616 2°54.491 7.220347 3.482722 34.049357 1.982922
2004-02-02 13:48:35 51°14.487 2°54.785 7.306858 3.45828 33.711513 2.185178
2004-02-02 13:49:34 51°14.372 2°55.059 7.490551 3.408451 33.079091 2.454853